createdAt,value
2022-11-25T00:00:49.866Z,3.70
2022-11-25T00:01:51.680Z,3.70
2022-11-25T00:02:53.427Z,3.60
2022-11-25T00:03:56.440Z,3.60
2022-11-25T00:04:58.029Z,3.60
2022-11-25T00:06:12.004Z,3.60
2022-11-25T00:07:13.645Z,3.60
2022-11-25T00:08:15.275Z,3.60
2022-11-25T00:09:16.855Z,3.60
2022-11-25T00:10:18.564Z,3.60
2022-11-25T00:11:20.299Z,3.60
2022-11-25T00:12:21.906Z,3.50
2022-11-25T00:13:23.490Z,3.60
2022-11-25T00:14:25.113Z,3.60
2022-11-25T00:15:26.707Z,3.60
2022-11-25T00:16:28.411Z,3.60
2022-11-25T00:17:30.071Z,3.60
2022-11-25T00:18:31.858Z,3.60
2022-11-25T00:19:33.631Z,3.60
2022-11-25T00:20:37.454Z,3.60
2022-11-25T00:21:39.238Z,3.60
2022-11-25T00:22:40.892Z,3.60
2022-11-25T00:23:42.500Z,3.60
2022-11-25T00:24:44.111Z,3.60
2022-11-25T00:25:45.748Z,3.60
2022-11-25T00:26:47.396Z,3.60
2022-11-25T00:27:52.805Z,3.60
2022-11-25T00:28:55.011Z,3.60
2022-11-25T00:29:56.639Z,3.60
2022-11-25T00:31:05.444Z,3.60
2022-11-25T00:32:07.300Z,3.60
2022-11-25T00:33:08.969Z,3.60
2022-11-25T00:34:14.554Z,3.60
2022-11-25T00:35:16.185Z,3.60
2022-11-25T00:36:25.844Z,3.60
2022-11-25T00:37:27.638Z,3.50
2022-11-25T00:38:29.639Z,3.50
2022-11-25T00:39:31.285Z,3.50
2022-11-25T00:40:33.003Z,3.50
2022-11-25T00:41:53.280Z,3.50
2022-11-25T00:43:13.433Z,3.50
2022-11-25T00:44:36.434Z,3.50
2022-11-25T00:45:38.546Z,3.50
2022-11-25T00:46:40.448Z,3.50
2022-11-25T00:47:42.219Z,3.50
2022-11-25T00:48:43.824Z,3.50
2022-11-25T00:49:50.658Z,3.50
2022-11-25T00:50:52.254Z,3.50
2022-11-25T00:51:54.043Z,3.50
2022-11-25T00:52:55.632Z,3.50
2022-11-25T00:53:59.131Z,3.50
2022-11-25T00:55:00.970Z,3.50
2022-11-25T00:56:14.765Z,3.50
2022-11-25T00:57:18.595Z,3.50
2022-11-25T00:58:20.299Z,3.50
2022-11-25T00:59:22.200Z,3.60
2022-11-25T01:00:23.871Z,3.50
2022-11-25T01:01:25.553Z,3.60
2022-11-25T01:02:27.900Z,3.60
2022-11-25T01:03:29.580Z,3.50
2022-11-25T01:04:31.360Z,3.50
2022-11-25T01:05:32.960Z,3.50
2022-11-25T01:06:36.314Z,3.50
2022-11-25T01:07:37.948Z,3.60
2022-11-25T01:08:39.547Z,3.60
2022-11-25T01:09:41.173Z,3.60
2022-11-25T01:10:42.762Z,3.60
2022-11-25T01:11:44.406Z,3.60
2022-11-25T01:12:47.659Z,3.60
2022-11-25T01:13:50.291Z,3.60
2022-11-25T01:14:51.950Z,3.60
2022-11-25T01:15:53.619Z,3.60
2022-11-25T01:16:55.278Z,3.60
2022-11-25T01:17:56.929Z,3.60
2022-11-25T01:19:01.797Z,3.50
2022-11-25T01:20:03.707Z,3.60
2022-11-25T01:21:39.118Z,3.60
2022-11-25T01:22:40.700Z,3.60
2022-11-25T01:23:43.358Z,3.60
2022-11-25T01:24:44.959Z,3.60
2022-11-25T01:25:46.601Z,3.60
2022-11-25T01:26:48.255Z,3.60
2022-11-25T01:27:49.828Z,3.60
2022-11-25T01:28:57.976Z,3.60
2022-11-25T01:29:59.596Z,3.60
2022-11-25T01:31:03.039Z,3.50
2022-11-25T01:32:04.953Z,3.40
2022-11-25T01:33:06.609Z,3.40
2022-11-25T01:34:13.109Z,3.30
2022-11-25T01:35:14.809Z,3.30
2022-11-25T01:36:18.225Z,3.20
2022-11-25T01:37:19.818Z,3.20
2022-11-25T01:38:21.406Z,3.30
2022-11-25T01:39:30.384Z,3.30
2022-11-25T01:40:35.668Z,3.30
2022-11-25T01:41:37.331Z,3.30
2022-11-25T01:42:48.986Z,3.30
2022-11-25T01:44:10.186Z,3.40
2022-11-25T01:45:33.209Z,3.40
2022-11-25T01:47:06.316Z,3.40
2022-11-25T01:48:26.215Z,3.30
2022-11-25T01:49:40.934Z,3.30
2022-11-25T01:50:43.416Z,3.30
2022-11-25T01:51:57.731Z,3.20
2022-11-25T01:53:01.274Z,3.20
2022-11-25T01:54:05.363Z,3.20
2022-11-25T01:55:11.180Z,3.10
2022-11-25T01:56:12.922Z,3.10
2022-11-25T01:57:22.065Z,3.10
2022-11-25T01:58:30.421Z,3.10
2022-11-25T01:59:37.939Z,3.10
2022-11-25T02:00:39.882Z,3.10
2022-11-25T02:01:41.638Z,3.10
2022-11-25T02:02:43.921Z,3.10
2022-11-25T02:03:49.950Z,3.10
2022-11-25T02:04:52.272Z,3.10
2022-11-25T02:06:06.611Z,3.10
2022-11-25T02:07:27.575Z,3.00
2022-11-25T02:08:30.287Z,3.00
2022-11-25T02:09:33.061Z,3.00
2022-11-25T02:10:35.332Z,3.00
2022-11-25T02:11:40.383Z,3.00
2022-11-25T02:12:45.231Z,3.00
2022-11-25T02:13:49.315Z,3.00
2022-11-25T02:14:53.498Z,3.00
2022-11-25T02:15:55.139Z,2.90
2022-11-25T02:16:59.689Z,2.90
2022-11-25T02:18:02.315Z,2.90
2022-11-25T02:19:04.741Z,2.90
2022-11-25T02:20:19.269Z,2.90
2022-11-25T02:21:26.635Z,2.90
2022-11-25T02:23:59.029Z,3.00
2022-11-25T02:25:29.290Z,2.90
2022-11-25T02:26:31.519Z,2.90
2022-11-25T02:27:33.364Z,2.90
2022-11-25T02:28:35.273Z,2.90
2022-11-25T02:29:39.097Z,2.80
2022-11-25T02:30:41.697Z,2.80
2022-11-25T02:31:44.499Z,2.80
2022-11-25T02:32:47.584Z,2.80
2022-11-25T02:33:49.621Z,2.80
2022-11-25T02:34:51.285Z,2.80
2022-11-25T02:35:59.158Z,2.80
2022-11-25T02:37:01.260Z,2.80
2022-11-25T02:38:10.812Z,2.80
2022-11-25T02:39:13.419Z,2.80
2022-11-25T02:40:15.313Z,2.80
2022-11-25T02:41:22.497Z,2.80
2022-11-25T02:42:25.207Z,2.90
2022-11-25T02:43:27.245Z,2.80
2022-11-25T02:44:30.107Z,2.90
2022-11-25T02:45:59.002Z,2.80
2022-11-25T02:47:00.663Z,3.00
2022-11-25T02:48:02.285Z,2.90
2022-11-25T02:49:09.344Z,2.90
2022-11-25T02:50:13.709Z,2.90
2022-11-25T02:51:18.019Z,2.80
2022-11-25T02:52:19.613Z,2.80
2022-11-25T02:53:21.615Z,2.80
2022-11-25T02:54:23.220Z,2.80
2022-11-25T02:55:24.797Z,2.80
2022-11-25T02:56:29.809Z,2.80
2022-11-25T02:57:31.389Z,2.80
2022-11-25T02:58:32.995Z,2.80
2022-11-25T02:59:34.629Z,2.70
2022-11-25T03:00:36.326Z,2.70
2022-11-25T03:01:38.940Z,2.70
2022-11-25T03:02:40.729Z,2.70
2022-11-25T03:03:42.752Z,2.80
2022-11-25T03:04:44.770Z,2.80
2022-11-25T03:05:46.513Z,2.80
2022-11-25T03:06:48.289Z,2.80
2022-11-25T03:07:50.587Z,2.80
2022-11-25T03:08:52.181Z,2.80
2022-11-25T03:09:53.750Z,2.90
2022-11-25T03:10:55.973Z,2.80
2022-11-25T03:12:16.053Z,2.80
2022-11-25T03:13:17.795Z,2.70
2022-11-25T03:14:19.404Z,2.70
2022-11-25T03:15:21.228Z,2.70
2022-11-25T03:16:22.830Z,2.70
2022-11-25T03:17:24.419Z,2.70
2022-11-25T03:18:26.086Z,2.60
2022-11-25T03:19:27.773Z,2.50
2022-11-25T03:20:29.383Z,2.50
2022-11-25T03:21:31.186Z,2.50
2022-11-25T03:22:33.015Z,2.50
2022-11-25T03:23:34.633Z,2.50
2022-11-25T03:24:36.535Z,2.50
2022-11-25T03:25:38.361Z,2.50
2022-11-25T03:26:40.486Z,2.50
2022-11-25T03:27:42.343Z,2.50
2022-11-25T03:28:43.979Z,2.50
2022-11-25T03:29:45.683Z,2.50
2022-11-25T03:30:47.286Z,2.50
2022-11-25T03:31:48.966Z,2.50
2022-11-25T03:32:50.833Z,2.60
2022-11-25T03:33:52.459Z,2.50
2022-11-25T03:34:54.053Z,2.50
2022-11-25T03:35:55.669Z,2.50
2022-11-25T03:36:57.347Z,2.50
2022-11-25T03:37:59.058Z,2.50
2022-11-25T03:39:00.789Z,2.50
2022-11-25T03:40:03.503Z,2.50
2022-11-25T03:41:05.225Z,2.60
2022-11-25T03:42:06.918Z,2.60
2022-11-25T03:43:08.485Z,2.60
2022-11-25T03:44:10.151Z,2.60
2022-11-25T03:45:13.553Z,2.70
2022-11-25T03:46:15.221Z,2.80
2022-11-25T03:47:16.898Z,2.80
2022-11-25T03:48:18.484Z,2.70
2022-11-25T03:49:21.952Z,2.70
2022-11-25T03:50:23.599Z,2.60
2022-11-25T03:51:25.686Z,2.60
2022-11-25T03:52:27.262Z,2.60
2022-11-25T03:53:28.883Z,2.60
2022-11-25T03:54:30.990Z,2.60
2022-11-25T03:55:32.579Z,2.60
2022-11-25T03:56:34.134Z,2.70
2022-11-25T03:57:35.812Z,2.70
2022-11-25T03:58:37.549Z,2.70
2022-11-25T03:59:39.155Z,2.70
2022-11-25T04:00:40.742Z,2.70
2022-11-25T04:01:44.393Z,2.80
2022-11-25T04:02:46.326Z,2.80
2022-11-25T04:03:47.950Z,2.80
2022-11-25T04:04:49.979Z,2.80
2022-11-25T04:05:51.579Z,2.80
2022-11-25T04:06:53.260Z,2.70
2022-11-25T04:07:57.897Z,2.60
2022-11-25T04:08:59.849Z,2.60
2022-11-25T04:10:01.683Z,2.60
2022-11-25T04:11:03.256Z,2.60
2022-11-25T04:12:23.786Z,2.50
2022-11-25T04:13:25.443Z,2.50
2022-11-25T04:14:27.046Z,2.50
2022-11-25T04:15:28.651Z,2.50
2022-11-25T04:16:30.503Z,2.50
2022-11-25T04:17:32.109Z,2.50
2022-11-25T04:18:33.706Z,2.50
2022-11-25T04:19:35.264Z,2.50
2022-11-25T04:20:36.884Z,2.50
2022-11-25T04:21:38.500Z,2.50
2022-11-25T04:22:40.648Z,2.40
2022-11-25T04:23:42.240Z,2.40
2022-11-25T04:24:43.868Z,2.50
2022-11-25T04:25:45.513Z,2.50
2022-11-25T04:26:47.115Z,2.50
2022-11-25T04:27:48.685Z,2.40
2022-11-25T04:28:52.634Z,2.50
2022-11-25T04:29:54.655Z,2.50
2022-11-25T04:30:56.299Z,2.50
2022-11-25T04:31:57.920Z,2.50
2022-11-25T04:33:00.200Z,2.50
2022-11-25T04:34:01.760Z,2.50
2022-11-25T04:35:03.614Z,2.60
2022-11-25T04:36:05.704Z,2.60
2022-11-25T04:37:07.277Z,2.60
2022-11-25T04:38:08.910Z,2.80
2022-11-25T04:39:10.488Z,2.90
2022-11-25T04:40:12.762Z,2.90
2022-11-25T04:41:14.547Z,3.00
2022-11-25T04:42:36.441Z,3.00
2022-11-25T04:43:38.211Z,3.00
2022-11-25T04:44:39.771Z,3.00
2022-11-25T04:47:03.182Z,3.00
2022-11-25T04:48:05.159Z,3.10
2022-11-25T04:49:06.981Z,3.00
2022-11-25T04:50:18.602Z,3.00
2022-11-25T04:51:20.211Z,3.00
2022-11-25T04:52:21.969Z,3.00
2022-11-25T04:53:23.641Z,3.10
2022-11-25T04:54:25.228Z,3.00
2022-11-25T04:55:26.819Z,3.00
2022-11-25T04:56:28.471Z,3.00
2022-11-25T04:57:30.103Z,3.00
2022-11-25T04:58:50.394Z,3.00
2022-11-25T04:59:52.015Z,3.00
2022-11-25T05:00:53.587Z,2.90
2022-11-25T05:01:55.181Z,2.90
2022-11-25T05:02:56.916Z,2.80
2022-11-25T05:03:58.512Z,2.80
2022-11-25T05:05:00.090Z,2.70
2022-11-25T05:06:07.177Z,2.70
2022-11-25T05:07:09.397Z,2.70
2022-11-25T05:08:11.005Z,2.60
2022-11-25T05:09:12.663Z,2.60
2022-11-25T05:10:14.275Z,2.70
2022-11-25T05:11:16.044Z,2.70
2022-11-25T05:12:23.535Z,2.70
2022-11-25T05:13:25.583Z,2.60
2022-11-25T05:14:27.389Z,2.70
2022-11-25T05:15:28.949Z,2.70
2022-11-25T05:16:30.558Z,2.70
2022-11-25T05:17:32.781Z,2.70
2022-11-25T05:18:34.423Z,2.70
2022-11-25T05:19:36.497Z,2.70
2022-11-25T05:20:38.144Z,2.70
2022-11-25T05:21:39.744Z,2.70
2022-11-25T05:22:41.373Z,2.70
2022-11-25T05:23:42.971Z,2.70
2022-11-25T05:24:44.735Z,2.70
2022-11-25T05:25:46.373Z,2.60
2022-11-25T05:26:47.971Z,2.60
2022-11-25T05:27:49.585Z,2.60
2022-11-25T05:28:51.213Z,2.50
2022-11-25T05:29:56.198Z,2.50
2022-11-25T05:30:58.456Z,2.60
2022-11-25T05:32:00.589Z,2.50
2022-11-25T05:33:02.166Z,2.50
2022-11-25T05:34:04.390Z,2.50
2022-11-25T05:35:06.633Z,2.50
2022-11-25T05:36:08.421Z,2.50
2022-11-25T05:37:12.197Z,2.50
2022-11-25T05:38:13.765Z,2.50
2022-11-25T05:39:15.444Z,2.40
2022-11-25T05:40:17.060Z,2.30
2022-11-25T05:41:18.661Z,2.30
2022-11-25T05:42:20.281Z,2.30
2022-11-25T05:43:21.881Z,2.30
2022-11-25T05:44:23.585Z,2.30
2022-11-25T05:45:25.151Z,2.30
2022-11-25T05:46:26.929Z,2.30
2022-11-25T05:47:28.657Z,2.30
2022-11-25T05:48:30.229Z,2.30
2022-11-25T05:49:31.966Z,2.40
2022-11-25T05:50:33.573Z,2.40
2022-11-25T05:51:35.385Z,2.40
2022-11-25T05:52:36.976Z,2.30
2022-11-25T05:53:38.763Z,2.40
2022-11-25T05:54:40.380Z,2.50
2022-11-25T05:55:41.974Z,2.50
2022-11-25T05:56:43.580Z,2.60
2022-11-25T05:57:45.153Z,2.60
2022-11-25T05:58:47.033Z,2.70
2022-11-25T05:59:48.652Z,2.70
2022-11-25T06:00:50.855Z,2.70
2022-11-25T06:01:55.229Z,2.70
2022-11-25T06:02:56.912Z,2.80
2022-11-25T06:04:02.983Z,2.70
2022-11-25T06:05:04.960Z,2.80
2022-11-25T06:06:07.567Z,2.70
2022-11-25T06:07:09.224Z,2.80
2022-11-25T06:08:11.441Z,2.80
2022-11-25T06:09:13.227Z,2.80
2022-11-25T06:10:16.107Z,2.90
2022-11-25T06:11:18.575Z,2.90
2022-11-25T06:12:23.077Z,2.90
2022-11-25T06:13:25.447Z,2.90
2022-11-25T06:14:27.015Z,3.00
2022-11-25T06:15:28.755Z,3.00
2022-11-25T06:16:30.384Z,3.00
2022-11-25T06:17:31.975Z,3.00
2022-11-25T06:18:33.563Z,3.00
2022-11-25T06:19:35.176Z,3.00
2022-11-25T06:20:36.870Z,3.00
2022-11-25T06:21:38.500Z,3.00
2022-11-25T06:22:40.080Z,3.00
2022-11-25T06:23:41.759Z,3.00
2022-11-25T06:24:45.190Z,3.00
2022-11-25T06:25:49.225Z,3.00
2022-11-25T06:26:50.784Z,3.00
2022-11-25T06:28:14.045Z,3.00
2022-11-25T06:29:15.135Z,3.00
2022-11-25T06:30:17.224Z,3.10
2022-11-25T06:31:21.766Z,3.00
2022-11-25T06:32:23.349Z,3.10
2022-11-25T06:33:24.929Z,3.00
2022-11-25T06:34:26.479Z,3.00
2022-11-25T06:35:28.056Z,3.00
2022-11-25T06:36:29.687Z,3.00
2022-11-25T06:37:32.549Z,3.00
2022-11-25T06:38:34.547Z,3.00
2022-11-25T06:39:36.104Z,3.10
2022-11-25T06:40:37.708Z,3.20
2022-11-25T06:41:39.322Z,3.20
2022-11-25T06:42:43.306Z,3.30
2022-11-25T06:43:45.216Z,3.40
2022-11-25T06:44:46.843Z,3.40
2022-11-25T06:45:48.433Z,3.40
2022-11-25T06:46:50.055Z,3.40
2022-11-25T06:47:51.707Z,3.40
2022-11-25T06:48:54.158Z,3.40
2022-11-25T06:49:55.807Z,3.40
2022-11-25T06:51:02.939Z,3.40
2022-11-25T06:52:04.831Z,3.40
2022-11-25T06:53:06.410Z,3.40
2022-11-25T06:54:08.539Z,3.50
2022-11-25T06:55:10.213Z,3.50
2022-11-25T06:56:17.963Z,3.60
2022-11-25T06:57:19.963Z,3.60
2022-11-25T06:58:35.436Z,3.50
2022-11-25T06:59:38.313Z,3.60
2022-11-25T07:00:39.891Z,3.50
2022-11-25T07:01:41.631Z,3.50
2022-11-25T07:02:48.397Z,3.50
2022-11-25T07:03:53.179Z,3.60
2022-11-25T07:04:54.792Z,3.60
2022-11-25T07:05:58.232Z,3.60
2022-11-25T07:06:59.806Z,3.60
2022-11-25T07:08:01.372Z,3.60
2022-11-25T07:09:04.199Z,3.50
2022-11-25T07:10:06.460Z,3.50
2022-11-25T07:11:13.528Z,3.50
2022-11-25T07:12:15.103Z,3.50
2022-11-25T07:13:16.781Z,3.50
2022-11-25T07:14:18.428Z,3.50
2022-11-25T07:15:20.015Z,3.40
2022-11-25T07:16:22.003Z,3.40
2022-11-25T07:17:23.657Z,3.40
2022-11-25T07:18:25.449Z,3.40
2022-11-25T07:19:27.030Z,3.40
2022-11-25T07:20:29.315Z,3.40
2022-11-25T07:21:32.658Z,3.50
2022-11-25T07:22:34.249Z,3.60
2022-11-25T07:23:37.323Z,3.60
2022-11-25T07:24:38.998Z,3.60
2022-11-25T07:25:40.628Z,3.50
2022-11-25T07:26:43.772Z,3.50
2022-11-25T07:27:45.353Z,3.30
2022-11-25T07:28:47.642Z,3.30
2022-11-25T07:30:10.665Z,3.30
2022-11-25T07:31:28.759Z,3.30
2022-11-25T07:32:33.941Z,3.30
2022-11-25T07:33:36.113Z,3.30
2022-11-25T07:34:37.842Z,3.30
2022-11-25T07:35:39.427Z,3.30
2022-11-25T07:36:42.034Z,3.30
2022-11-25T07:37:43.731Z,3.30
2022-11-25T07:38:46.877Z,3.30
2022-11-25T07:39:48.740Z,3.40
2022-11-25T07:40:50.660Z,3.40
2022-11-25T07:41:53.353Z,3.40
2022-11-25T07:42:54.931Z,3.40
2022-11-25T07:44:02.741Z,3.40
2022-11-25T07:45:04.716Z,3.50
2022-11-25T07:46:26.452Z,3.60
2022-11-25T07:47:28.787Z,3.60
2022-11-25T07:48:31.726Z,3.60
2022-11-25T07:49:33.341Z,3.70
2022-11-25T07:50:35.001Z,3.70
2022-11-25T07:51:48.179Z,3.70
2022-11-25T07:52:49.813Z,3.70
2022-11-25T07:53:53.411Z,3.80
2022-11-25T07:54:55.066Z,3.80
2022-11-25T07:56:00.275Z,3.80
2022-11-25T07:57:01.878Z,3.80
2022-11-25T07:58:03.615Z,3.90
2022-11-25T07:59:06.446Z,3.80
2022-11-25T08:00:08.842Z,3.90
2022-11-25T08:01:12.417Z,3.90
2022-11-25T08:02:14.187Z,3.90
2022-11-25T08:03:15.949Z,3.90
2022-11-25T08:04:20.552Z,4.00
2022-11-25T08:05:22.697Z,4.00
2022-11-25T08:06:27.211Z,4.10
2022-11-25T08:07:33.404Z,4.10
2022-11-25T08:08:39.168Z,4.20
2022-11-25T08:09:40.829Z,4.20
2022-11-25T08:10:42.487Z,4.20
2022-11-25T08:11:44.624Z,4.20
2022-11-25T08:12:46.334Z,4.30
2022-11-25T08:13:48.054Z,4.30
2022-11-25T08:14:49.664Z,4.30
2022-11-25T08:15:51.864Z,4.40
2022-11-25T08:16:53.531Z,4.30
2022-11-25T08:17:55.150Z,4.30
2022-11-25T08:18:58.964Z,4.30
2022-11-25T08:20:00.557Z,4.30
2022-11-25T08:21:04.689Z,4.30
2022-11-25T08:22:06.859Z,4.30
2022-11-25T08:23:08.625Z,4.30
2022-11-25T08:24:20.800Z,4.30
2022-11-25T08:25:22.423Z,4.30
2022-11-25T08:26:30.256Z,4.30
2022-11-25T08:27:31.897Z,4.20
2022-11-25T08:28:34.030Z,4.20
2022-11-25T08:29:35.894Z,4.20
2022-11-25T08:30:37.624Z,4.20
2022-11-25T08:31:39.280Z,4.20
2022-11-25T08:32:40.996Z,4.20
2022-11-25T08:33:44.877Z,4.10
2022-11-25T08:34:46.606Z,4.20
2022-11-25T08:35:54.276Z,4.20
2022-11-25T08:36:55.894Z,4.20
2022-11-25T08:37:57.503Z,4.30
2022-11-25T08:39:01.147Z,4.30
2022-11-25T08:40:03.636Z,4.30
2022-11-25T08:41:29.892Z,4.30
2022-11-25T08:42:31.499Z,4.40
2022-11-25T08:43:33.145Z,4.50
2022-11-25T08:44:35.419Z,4.40
2022-11-25T08:45:38.268Z,4.40
2022-11-25T08:46:40.603Z,4.40
2022-11-25T08:47:42.260Z,4.40
2022-11-25T08:48:44.232Z,4.50
2022-11-25T08:49:45.916Z,4.50
2022-11-25T08:50:50.930Z,4.50
2022-11-25T08:51:52.573Z,4.60
2022-11-25T08:52:54.186Z,4.60
2022-11-25T08:53:56.320Z,4.70
2022-11-25T08:54:58.625Z,4.70
2022-11-25T08:56:00.243Z,4.70
2022-11-25T08:57:01.856Z,4.70
2022-11-25T08:58:03.507Z,4.70
2022-11-25T08:59:05.529Z,4.80
2022-11-25T09:00:08.274Z,4.90
2022-11-25T09:01:11.107Z,4.90
2022-11-25T09:02:15.996Z,4.90
2022-11-25T09:03:17.695Z,5.00
2022-11-25T09:04:19.484Z,5.00
2022-11-25T09:05:21.270Z,5.00
2022-11-25T09:06:24.787Z,5.00
2022-11-25T09:07:30.713Z,5.00
2022-11-25T09:08:33.075Z,5.00
2022-11-25T09:09:35.305Z,5.00
2022-11-25T09:10:38.960Z,5.10
2022-11-25T09:11:41.038Z,5.20
2022-11-25T09:12:42.728Z,5.20
2022-11-25T09:13:44.470Z,5.30
2022-11-25T09:14:46.181Z,5.20
2022-11-25T09:17:01.915Z,5.20
2022-11-25T09:18:15.617Z,5.30
2022-11-25T09:19:31.697Z,5.30
2022-11-25T09:20:34.948Z,5.30
2022-11-25T09:22:25.786Z,5.30
2022-11-25T09:23:28.912Z,5.40
2022-11-25T09:24:36.247Z,5.30
2022-11-25T09:25:56.373Z,5.40
2022-11-25T09:27:15.442Z,5.40
2022-11-25T09:28:46.207Z,5.40
2022-11-25T09:35:02.879Z,5.60
2022-11-25T09:48:46.815Z,5.80
2022-11-25T09:56:24.393Z,5.90
2022-11-25T09:57:41.050Z,6.00
2022-11-25T09:58:51.835Z,6.10
2022-11-25T10:00:02.997Z,6.10
2022-11-25T10:01:12.095Z,6.20
2022-11-25T10:02:23.162Z,6.30
2022-11-25T10:03:47.517Z,6.30
2022-11-25T10:04:55.043Z,6.30
2022-11-25T10:06:04.288Z,6.30
2022-11-25T10:07:17.358Z,6.30
2022-11-25T10:08:27.142Z,6.20
2022-11-25T10:09:35.471Z,6.30
2022-11-25T10:11:07.238Z,6.30
2022-11-25T10:12:29.287Z,6.40
2022-11-25T10:14:02.229Z,6.40
2022-11-25T10:15:12.567Z,6.50
2022-11-25T10:16:23.203Z,6.50
2022-11-25T10:17:30.805Z,6.50
2022-11-25T10:18:40.765Z,6.50
2022-11-25T10:20:07.059Z,6.50
2022-11-25T10:21:10.321Z,6.50
2022-11-25T10:22:21.325Z,6.40
2022-11-25T10:23:28.480Z,6.40
2022-11-25T10:24:30.298Z,6.40
2022-11-25T10:25:38.590Z,6.40
2022-11-25T10:26:43.387Z,6.40
2022-11-25T10:28:03.979Z,6.50
2022-11-25T10:29:23.002Z,6.50
2022-11-25T10:30:37.857Z,6.70
2022-11-25T10:31:42.144Z,6.80
2022-11-25T10:32:56.516Z,6.80
2022-11-25T10:34:02.143Z,6.80
2022-11-25T10:35:14.304Z,6.80
2022-11-25T10:36:26.774Z,6.90
2022-11-25T10:37:37.150Z,6.90
2022-11-25T10:38:50.194Z,7.00
2022-11-25T10:39:51.792Z,7.00
2022-11-25T10:40:55.035Z,7.00
2022-11-25T10:42:08.181Z,7.10
2022-11-25T10:43:16.877Z,7.10
2022-11-25T10:44:28.343Z,7.20
2022-11-25T10:45:40.571Z,7.20
2022-11-25T10:47:14.317Z,7.30
2022-11-25T10:48:45.630Z,7.30
2022-11-25T10:50:05.869Z,7.30
2022-11-25T10:51:38.574Z,7.40
2022-11-25T10:53:00.231Z,7.50
2022-11-25T10:54:12.258Z,7.50
2022-11-25T10:55:25.611Z,7.50
2022-11-25T10:56:27.216Z,7.60
2022-11-25T10:57:29.731Z,7.60
2022-11-25T10:58:34.459Z,7.60
2022-11-25T10:59:38.954Z,7.60
2022-11-25T11:00:40.582Z,7.60
2022-11-25T11:01:42.463Z,7.60
2022-11-25T11:02:48.326Z,7.60
2022-11-25T11:04:03.533Z,7.70
2022-11-25T11:05:26.005Z,7.70
2022-11-25T11:06:48.509Z,7.70
2022-11-25T11:08:16.742Z,7.80
2022-11-25T11:09:35.200Z,7.80
2022-11-25T11:10:37.561Z,7.80
2022-11-25T11:11:48.546Z,7.80
2022-11-25T11:12:55.454Z,7.90
2022-11-25T11:14:08.592Z,7.80
2022-11-25T11:15:23.251Z,7.80
2022-11-25T11:16:36.668Z,7.80
2022-11-25T11:17:38.355Z,7.80
2022-11-25T11:18:41.765Z,7.80
2022-11-25T11:19:43.450Z,7.80
2022-11-25T11:20:51.348Z,7.80
2022-11-25T11:21:54.019Z,7.80
2022-11-25T11:23:08.327Z,7.80
2022-11-25T11:24:35.817Z,7.80
2022-11-25T11:25:39.808Z,7.80
2022-11-25T11:26:41.409Z,7.70
2022-11-25T11:27:43.077Z,7.70
2022-11-25T11:28:44.864Z,7.70
2022-11-25T11:29:46.511Z,7.70
2022-11-25T11:31:08.126Z,7.70
2022-11-25T11:32:22.465Z,7.70
2022-11-25T11:33:48.313Z,7.70
2022-11-25T11:35:06.231Z,7.70
2022-11-25T11:36:25.025Z,7.80
2022-11-25T11:37:42.750Z,7.80
2022-11-25T11:38:53.729Z,7.80
2022-11-25T11:40:03.139Z,7.90
2022-11-25T11:41:34.151Z,7.90
2022-11-25T11:43:11.883Z,7.90
2022-11-25T11:45:20.059Z,7.90
2022-11-25T11:46:53.815Z,7.90
2022-11-25T11:48:05.033Z,7.90
2022-11-25T11:49:27.592Z,7.90
2022-11-25T11:50:38.665Z,7.80
2022-11-25T11:52:05.876Z,7.80
2022-11-25T11:53:23.432Z,7.80
2022-11-25T11:54:39.663Z,7.80
2022-11-25T11:56:27.034Z,7.80
2022-11-25T11:57:24.089Z,7.80
2022-11-25T11:58:37.799Z,7.80
2022-11-25T11:59:53.338Z,7.90
2022-11-25T12:01:12.210Z,7.90
2022-11-25T12:02:40.729Z,7.90
2022-11-25T12:04:09.533Z,7.90
2022-11-25T12:05:11.130Z,7.90
2022-11-25T12:06:14.396Z,7.90
2022-11-25T12:07:39.133Z,7.90
2022-11-25T12:08:56.325Z,7.90
2022-11-25T12:10:16.940Z,7.90
2022-11-25T12:11:22.738Z,7.80
2022-11-25T12:12:32.759Z,7.90
2022-11-25T12:13:43.469Z,7.90
2022-11-25T12:14:53.807Z,7.90
2022-11-25T12:16:14.391Z,7.90
2022-11-25T12:17:30.946Z,8.00
2022-11-25T12:19:06.042Z,8.00
2022-11-25T12:20:34.753Z,8.00
2022-11-25T12:22:03.486Z,7.90
2022-11-25T12:23:49.045Z,8.00
2022-11-25T12:25:07.283Z,8.00
2022-11-25T12:26:19.764Z,8.00
2022-11-25T12:27:24.334Z,8.00
2022-11-25T12:28:36.569Z,8.00
2022-11-25T12:29:53.058Z,8.00
2022-11-25T12:31:19.032Z,8.10
2022-11-25T12:32:48.187Z,8.10
2022-11-25T12:34:27.624Z,8.10
2022-11-25T12:36:07.104Z,8.10
2022-11-25T12:37:15.874Z,8.10
2022-11-25T12:38:46.118Z,8.10
2022-11-25T12:40:03.773Z,8.10
2022-11-25T12:41:16.134Z,8.00
2022-11-25T12:42:25.374Z,8.00
2022-11-25T12:43:36.421Z,8.10
2022-11-25T12:44:45.858Z,8.00
2022-11-25T12:45:52.047Z,8.10
2022-11-25T12:46:56.159Z,8.10
2022-11-25T12:47:57.760Z,8.10
2022-11-25T12:49:00.104Z,8.10
2022-11-25T12:50:02.097Z,8.10
2022-11-25T12:51:19.708Z,8.20
2022-11-25T12:52:48.042Z,8.20
2022-11-25T12:54:01.967Z,8.10
2022-11-25T12:55:18.825Z,8.20
2022-11-25T12:56:31.691Z,8.20
2022-11-25T12:57:55.115Z,8.20
2022-11-25T12:59:05.335Z,8.20
2022-11-25T13:01:56.889Z,8.20
2022-11-25T13:03:17.387Z,8.20
2022-11-25T13:04:32.190Z,8.20
2022-11-25T13:05:45.130Z,8.30
2022-11-25T13:06:55.665Z,8.30
2022-11-25T13:08:26.350Z,8.30
2022-11-25T13:09:39.373Z,8.40
2022-11-25T13:10:40.957Z,8.40
2022-11-25T13:11:58.701Z,8.30
2022-11-25T13:13:17.939Z,8.40
2022-11-25T13:14:26.165Z,8.40
2022-11-25T13:15:32.410Z,8.40
2022-11-25T13:16:35.073Z,8.40
2022-11-25T13:17:41.451Z,8.40
2022-11-25T13:18:44.697Z,8.40
2022-11-25T13:19:46.323Z,8.30
2022-11-25T13:20:52.285Z,8.30
2022-11-25T13:22:06.484Z,8.30
2022-11-25T13:23:28.891Z,8.30
2022-11-25T13:24:38.973Z,8.30
2022-11-25T13:25:43.463Z,8.30
2022-11-25T13:26:49.738Z,8.40
2022-11-25T13:27:54.308Z,8.40
2022-11-25T13:28:56.682Z,8.40
2022-11-25T13:29:59.474Z,8.40
2022-11-25T13:31:16.211Z,8.40
2022-11-25T13:32:31.579Z,8.40
2022-11-25T13:33:45.108Z,8.50
2022-11-25T13:34:46.734Z,8.70
2022-11-25T13:35:58.172Z,8.80
2022-11-25T13:37:02.236Z,9.10
2022-11-25T13:38:08.297Z,9.20
2022-11-25T13:39:18.705Z,9.30
2022-11-25T13:40:26.347Z,9.30
2022-11-25T13:41:48.235Z,9.30
2022-11-25T13:42:51.051Z,9.20
2022-11-25T13:44:05.160Z,9.10
2022-11-25T13:45:27.580Z,9.00
2022-11-25T13:46:45.375Z,8.90
2022-11-25T13:47:49.345Z,8.90
2022-11-25T13:48:51.186Z,8.80
2022-11-25T13:49:55.729Z,8.80
2022-11-25T13:51:18.369Z,8.80
2022-11-25T13:52:25.645Z,8.80
2022-11-25T13:53:35.678Z,8.70
2022-11-25T13:54:46.043Z,8.80
2022-11-25T13:55:50.907Z,8.70
2022-11-25T13:57:32.169Z,8.70
2022-11-25T13:58:35.881Z,8.80
2022-11-25T13:59:43.577Z,8.90
2022-11-25T14:01:05.912Z,8.90
2022-11-25T14:02:31.053Z,9.00
2022-11-25T14:03:32.721Z,9.10
2022-11-25T14:04:51.084Z,9.20
2022-11-25T14:06:12.309Z,9.30
2022-11-25T14:07:29.394Z,9.60
2022-11-25T14:08:38.076Z,9.70
2022-11-25T14:10:01.493Z,9.80
2022-11-25T14:11:23.150Z,9.90
2022-11-25T14:12:37.972Z,9.80
2022-11-25T14:14:18.243Z,9.70
2022-11-25T14:15:29.239Z,9.70
2022-11-25T14:16:49.173Z,9.50
2022-11-25T14:18:09.646Z,9.60
2022-11-25T14:19:59.187Z,9.40
2022-11-25T14:21:12.992Z,9.40
2022-11-25T14:22:36.415Z,9.60
2022-11-25T14:23:41.751Z,9.70
2022-11-25T14:24:53.177Z,9.80
2022-11-25T14:25:57.497Z,9.80
2022-11-25T14:27:00.748Z,9.80
2022-11-25T14:28:23.509Z,9.90
2022-11-25T14:29:36.856Z,10.10
2022-11-25T14:30:53.517Z,10.20
2022-11-25T14:32:05.820Z,10.30
2022-11-25T14:33:11.452Z,10.60
2022-11-25T14:34:19.955Z,10.80
2022-11-25T14:35:27.281Z,10.70
2022-11-25T14:36:36.424Z,10.80
2022-11-25T14:38:00.026Z,10.70
2022-11-25T14:39:16.536Z,10.80
2022-11-25T14:40:38.511Z,10.80
2022-11-25T14:42:03.639Z,10.90
2022-11-25T14:43:12.390Z,10.80
2022-11-25T14:44:21.710Z,10.80
2022-11-25T14:45:26.367Z,10.70
2022-11-25T14:46:28.037Z,10.70
2022-11-25T14:47:39.135Z,10.50
2022-11-25T14:48:42.405Z,10.40
2022-11-25T14:50:12.253Z,10.30
2022-11-25T14:51:18.589Z,10.10
2022-11-25T14:52:35.790Z,10.00
2022-11-25T14:53:48.162Z,9.90
2022-11-25T14:54:52.224Z,9.80
2022-11-25T14:55:56.292Z,9.70
2022-11-25T14:56:58.973Z,9.60
2022-11-25T14:58:00.829Z,9.40
2022-11-25T14:59:02.680Z,9.40
2022-11-25T15:00:15.262Z,9.30
2022-11-25T15:01:23.326Z,9.20
2022-11-25T15:02:34.952Z,9.20
2022-11-25T15:03:36.824Z,9.10
2022-11-25T15:04:41.573Z,9.00
2022-11-25T15:05:43.221Z,8.90
2022-11-25T15:06:50.639Z,8.90
2022-11-25T15:08:12.792Z,8.80
2022-11-25T15:09:32.704Z,8.70
2022-11-25T15:10:51.119Z,8.80
2022-11-25T15:11:58.217Z,8.70
2022-11-25T15:13:02.338Z,8.70
2022-11-25T15:14:06.162Z,8.70
2022-11-25T15:15:15.275Z,8.60
2022-11-25T15:16:20.543Z,8.60
2022-11-25T15:17:35.064Z,8.50
2022-11-25T15:18:37.271Z,8.50
2022-11-25T15:19:39.382Z,8.40
2022-11-25T15:20:44.718Z,8.40